METAR Data
IDs: Format: Raw Decoded Include TAF

Data at: 1200 UTC 16 Jul 2019

KAXX 161155Z AUTO 00000KT 10SM 08/07 A3040 RMK AO2 60002 70002 T00750070 10149 20073
KAXX 161135Z AUTO 00000KT 10SM 09/08 A3039 RMK AO2 T00880083
KAXX 161115Z AUTO 00000KT 10SM 08/08 A3039 RMK AO2 T00820077
KAXX 161055Z AUTO 00000KT 5SM BR 08/08 A3039 RMK AO2 T00820077
KAXX 161035Z AUTO 28003KT 10SM 08/08 A3038 RMK AO2 T00820076
KAXX 161015Z AUTO 00000KT 10SM 10/09 A3038 RMK AO2 T00970091
KAXX 160955Z AUTO 00000KT 10SM 10/09 A3038 RMK AO2 T00950089
KAXX 160935Z AUTO 00000KT 10SM 10/09 A3038 RMK AO2 T00960090
KAXX 160915Z AUTO 00000KT 10SM 11/10 A3038 RMK AO2 T01060097
KAXX 160855Z AUTO 00000KT 10SM 11/10 A3038 RMK AO2 60002 T01120104
KAXX 160835Z AUTO 28004KT 10SM -RA 12/10 A3038 RMK AO2 T01150102
KAXX 160815Z AUTO 00000KT 10SM 12/10 A3039 RMK AO2 T01200104
KAXX 160755Z AUTO 30006KT 10SM 12/10 A3039 RMK AO2 P0001 T01160104
KAXX 160735Z AUTO 17003KT 10SM 13/10 A3040 RMK AO2 P0001 T01270101
KAXX 160715Z AUTO 29006G09KT 10SM RA 13/11 A3041 RMK AO2 P0001 T01260107
KAXX 160655Z AUTO 21010KT 5SM -RA 13/11 A3042 RMK AO2 P0001 T01250105
KAXX 160635Z AUTO 29012G16KT 10SM -RA 15/10 A3043 RMK AO2 T01460101
KAXX 160615Z AUTO 06005KT 10SM 15/11 A3042 RMK AO2 T01490105
KAXX 160555Z AUTO 34008KT 10SM 15/11 A3040 RMK AO2 T01460111 10220 20135 402560072
KAXX 160535Z AUTO 16005KT 10SM 16/09 A3039 RMK AO2 T01590092
KAXX 160515Z AUTO 15003KT 10SM 15/11 A3040 RMK AO2 T01460112
KAXX 160455Z AUTO 00000KT 10SM 15/11 A3040 RMK AO2 T01480111
KAXX 160435Z AUTO 10005KT 1SM -DZ 14/12 A3039 RMK AO2 T01430115
KAXX 160415Z AUTO 28004KT 10SM 14/11 A3040 RMK AO2 T01350111
KAXX 160355Z AUTO 02003KT 10SM 15/11 A3038 RMK AO2 T01450111
KAXX 160335Z AUTO 00000KT 1 3/4SM HZ 15/12 A3037 RMK AO2 T01470117
KAXX 160315Z AUTO 00000KT 10SM 15/11 A3038 RMK AO2 T01500111
KAXX 160255Z AUTO 00000KT 10SM 15/11 A3037 RMK AO2 T01450113
KAXX 160235Z AUTO 00000KT 10SM 15/11 A3037 RMK AO2 T01480108
KAXX 160215Z AUTO 00000KT 10SM 16/11 A3036 RMK AO2 T01600114
KAXX 160155Z AUTO 00000KT 10SM 19/10 A3036 RMK AO2 T01920096
KAXX 160135Z AUTO 00000KT 10SM 19/10 A3035 RMK AO2 T01940104
KAXX 160115Z AUTO 00000KT 10SM 21/10 A3035 RMK AO2 T02100102
KAXX 160055Z AUTO 19008KT 10SM 21/10 A3035 RMK AO2 T02130096
KAXX 160035Z AUTO 18011KT 10SM 21/09 A3035 RMK AO2 T02090090
KAXX 160015Z AUTO 00000KT 2 1/2SM HZ 22/12 A3035 RMK AO2 T02200119
KAXX 152355Z AUTO 04004KT 1/2SM HZ 22/12 A3033 RMK AO2 T02180115 10256 20171
KAXX 152335Z AUTO 00000KT 10SM 21/09 A3033 RMK AO2 T02070094
KAXX 152315Z AUTO 00000KT 10SM 21/09 A3033 RMK AO2 T02060087
KAXX 152255Z AUTO 01004KT 10SM 21/11 A3035 RMK AO2 T02110109
KAXX 152235Z AUTO 08004KT 10SM 20/11 A3036 RMK AO2 T02010112
KAXX 152215Z AUTO 34007KT 10SM 17/10 A3037 RMK AO2 T01720103
KAXX 152155Z AUTO 06013G21KT 10SM 17/08 A3038 RMK AO2 T01740081
KAXX 152135Z AUTO 08019G26KT 10SM 19/08 A3037 RMK AO2 T01890079
KAXX 152115Z AUTO 20008G15KT 10SM 24/10 A3035 RMK AO2 T02430098
KAXX 152055Z AUTO 21004G17KT 10SM 26/10 A3034 RMK AO2 T02550103
KAXX 152035Z AUTO 24007KT 10SM 25/10 A3035 RMK AO2 T02500104
KAXX 152015Z AUTO 22010KT 10SM 25/12 A3036 RMK AO2 T02480117
KAXX 151955Z AUTO 25010KT 10SM 24/11 A3037 RMK AO2 T02380111
KAXX 151935Z AUTO 23010KT 190V280 10SM 24/11 A3037 RMK AO2 T02410110
KAXX 151915Z AUTO 24008KT 10SM 24/12 A3038 RMK AO2 T02370117
KAXX 151855Z AUTO 26006KT 10SM 23/11 A3039 RMK AO2 T02340105
KAXX 151835Z AUTO 20007KT 10SM 23/11 A3039 RMK AO2 T02340112
KAXX 151815Z AUTO 18006KT 10SM 23/11 A3040 RMK AO2 T02250108
KAXX 151755Z AUTO 25006KT 10SM 22/11 A3040 RMK AO2 T02160107 10218 20078
KAXX 151735Z AUTO 24007KT 10SM 21/11 A3040 RMK AO2 T02140112
KAXX 151715Z AUTO 00000KT 10SM 21/11 A3041 RMK AO2 T02080108
KAXX 151655Z AUTO 24006KT 10SM 20/11 A3041 RMK AO2 T02030110
KAXX 151635Z AUTO 25004KT 10SM 20/10 A3042 RMK AO2 T02000104
KAXX 151615Z AUTO 12003KT 10SM 19/12 A3042 RMK AO2 T01900115
KAXX 151555Z AUTO 00000KT 10SM 17/12 A3042 RMK AO2 T01720118
KAXX 151535Z AUTO 00000KT 10SM 15/13 A3043 RMK AO2 T01530130
KAXX 151515Z AUTO 03003KT 10SM 14/13 A3043 RMK AO2 T01410125
KAXX 151455Z AUTO 00000KT 10SM 13/12 A3044 RMK AO2 T01270120
KAXX 151435Z AUTO 00000KT 10SM 11/11 A3044 RMK AO2 T01110107
KAXX 151415Z AUTO 00000KT 3/4SM BR 10/10 A3045 RMK AO2 T01030099
KAXX 151355Z AUTO 00000KT 1/4SM FG 09/09 A3045 RMK AO2 T00900085
KAXX 151335Z AUTO 00000KT 1/4SM FG 09/08 A3045 RMK AO2 T00850081
KAXX 151315Z AUTO 00000KT 1/4SM FG 08/08 A3045 RMK AO2 T00820078
KAXX 151255Z AUTO 00000KT M1/4SM FG 08/08 A3045 RMK AO2 T00820078
KAXX 151235Z AUTO 00000KT M1/4SM FG 08/08 A3044 RMK AO2 T00800075
KAXX 151215Z AUTO 00000KT M1/4SM FG 08/08 A3043 RMK AO2 T00780075
KAXX 151155Z AUTO 00000KT M1/4SM FG 08/08 A3045 RMK AO2 70050 T00780075 10126 20072
KAXX 151135Z AUTO 00000KT 1/4SM FG 08/08 A3044 RMK AO2 T00830080
KAXX 151115Z AUTO 00000KT 1/4SM FG 08/08 A3044 RMK AO2 T00830080
KAXX 151055Z AUTO 00000KT M1/4SM FG 08/08 A3044 RMK AO2 T00820078
KAXX 151035Z AUTO 00000KT 1/4SM FG 08/07 A3043 RMK AO2 T00780074
KAXX 151015Z AUTO 00000KT 10SM 08/08 A3044 RMK AO2 T00800075
KAXX 150955Z AUTO 00000KT 10SM 09/08 A3045 RMK AO2 T00850080
KAXX 150935Z AUTO 00000KT 3SM BR 09/09 A3045 RMK AO2 T00900085
KAXX 150915Z AUTO 00000KT 10SM 09/08 A3045 RMK AO2 T00850079
KAXX 150855Z AUTO 00000KT 10SM 10/09 A3046 RMK AO2 T00950090
KAXX 150835Z AUTO 00000KT 10SM 09/09 A3047 RMK AO2 T00930086
KAXX 150815Z AUTO 00000KT 10SM 11/10 A3047 RMK AO2 T01050097
KAXX 150755Z AUTO 00000KT 10SM 11/10 A3048 RMK AO2 T01070100
KAXX 150735Z AUTO 29004KT 10SM 11/10 A3049 RMK AO2 T01060099
KAXX 150715Z AUTO 29003KT 10SM 11/10 A3049 RMK AO2 T01100100
KAXX 150655Z AUTO 00000KT 10SM 12/10 A3049 RMK AO2 T01190103
KAXX 150635Z AUTO 03003KT 10SM 12/10 A3050 RMK AO2 T01230103
KAXX 150615Z AUTO 00000KT 10SM 12/10 A3049 RMK AO2 T01210103
KAXX 150555Z AUTO 29009KT 10SM 13/10 A3048 RMK AO2 P0005 60048 T01260098 10188 20120 402610027
KAXX 150535Z AUTO 16019G27KT 7SM -RA 12/11 A3045 RMK AO2 P0005 T01200106
KAXX 150515Z AUTO 14006KT 10SM -RA 12/11 A3051 RMK AO2 P0002 T01220108
KAXX 150455Z AUTO 11006KT 7SM RA 12/11 A3053 RMK AO2 P0017 T01240112
KAXX 150435Z AUTO 00000KT 4SM RA 13/11 A3055 RMK AO2 P0013 T01250111
KAXX 150415Z AUTO 23003KT 5SM RA 13/11 A3055 RMK AO2 P0005 T01280111
KAXX 150355Z AUTO 26011KT 4SM RA 13/11 A3054 RMK AO2 P0025 T01300112
KAXX 150335Z AUTO 24011G14KT 4SM +RA 14/12 A3053 RMK AO2 P0017 T01360115
KAXX 150315Z AUTO 22008KT 3SM +RA 14/12 A3051 RMK AO2 P0007 T01400118
KAXX 150255Z AUTO 36007KT 10SM 16/10 A3047 RMK AO2 P0001 60001 T01570103
KAXX 150235Z AUTO 00000KT 10SM 15/13 A3046 RMK AO2 P0001 T01540128
KAXX 150215Z AUTO 06003KT 10SM -RA 16/13 A3045 RMK AO2 T01610131
KAXX 150155Z AUTO 00000KT 10SM 16/14 A3046 RMK AO2 T01620135
KAXX 150135Z AUTO 05006KT 10SM 17/13 A3045 RMK AO2 T01670130
KAXX 150115Z AUTO 03007KT 10SM 17/13 A3044 RMK AO2 T01700134
KAXX 150055Z AUTO 00000KT 7SM 17/13 A3044 RMK AO2 T01740132
KAXX 150035Z AUTO 00000KT 7SM 18/12 A3044 RMK AO2 T01760121
KAXX 150015Z AUTO 16004KT 10SM 18/13 A3044 RMK AO2 T01760127